رداً على: مطارات الهند

الرئيسية المنتدى المطارات مطارات الهند رداً على: مطارات الهند

#1609
عبد الله فهد
مدير عام

مطار كاليكوت 

VOCL 

محطة الاقلاع الرياض

المطار البديل VOHS

تاريخ الوصول 

29/04/2022

التوقيت 0328

الروت

OERK RESA1G RESAL T533 DEGNO M628 KATIT M440 TULBU N881 RASKI L301 KARKU M638 BBB W15 CLC..VOCL

الطقس في هذاك اليوم

TAF VOCL 281700Z 2818/2924 VRB03KT 5000 BR SCT015 TEMPO 2900/2902 3000 BR FEW012 SCT080 BECMG 2903/2904 31005KT 6000 SCT015 TEMPO 2909/2913 3000 TSRA RA SCT012 FEW02

 الموجات المستخدمة من الرياض الى كاليكوت 

126.000

RAPMA 132.900

MIGMA 134.500

MIDGU 124.700

GIDAN 126.550

 RASKI (HF) 8879 Primary / 6661 Secondary 

10018

KARKU 135.750 132.700 Change SQ code 

EXOLU 125.350

MABTA 134.425 

127.550 App 

128.300  Koshin 

122.950 Calicut app

مافية STAR ولا SID كلها Radar Vectors 

وبالنسبة لل AITS كان يقول RWY 28 لكن اعطونا RWY 10 للهبوط.

المطار من فئة C 

محطة الاقلاع كاليكوت

تاريخ المغادرة 

01/05/2022

التوقيت

 05:43

الروت

VOCL..CLC W15 GGO R461 BBB V2 BIMOT V1 KARKU L301 RAGMA N571 ALPOB L768 ULADA T136 EMUSA Q212 ETBAS ETBA1A OERK

 الطقس هي هذا اليوم

TAF VOCL 302300Z 0100/0206 09005KT 3000 TS BR FEW015 FEW025CB SCT080 BECMG 0104/0106 27010KT 6000 SCT015 SCT080 TEMPO 0113/0116 3000 TSRA RA FEW008 SCT012 FEW025CB BKN080 BECMG 0117/0118 VRB03KT 4000 BR SCT012 SCT080 BECMG 0123/0201 09005KT 2000 BR BECMG 0204/0206 26010KT 6000 FEW012 SCT080

 

الكليرنس يعطيك ايها وانتا تسوي باك تراك وكانت كالتالي:

Clear Destination Riyadh via W15 climb initially FL160 RWY 28 Turn Right to establish on Radial 332 from CLC VOR FL160 SQ code

ملاحظة في حسبة ال Takeoff ال GREEN DOT بعض الاحيان ماتطلع في التطبيق فاراح تحسبها Manually

ارسلت فيها ايميل للقسم المختص.

الموجات المستخدمة من كاليكوت الى الرياض

123.350 Tower

App 128.300 kochin 

134.425 App

GGO 125.350

BIMOT 132.700

(KARKU 135.750 (Mumbai oceanic 

(AKNOX 8.879 (HF

RASKI 135.600 Muscat change SQ code 

VAXIM 128.150

TOVDI 119.800

MENSA 132.550

TUDIS 124.375

ALPOB 132.125 

SOLOB 127.525

ULADA  132.500 then 133.250

GETOT 126.000

  • تمّ تحرير هذا الرد قبل قبل أسبوعين، 4 أيام بواسطة عبد الله فهد.